Pacific Titan — WCZ6844 — position and weather

sailwx.info

Track history (hours):
 
Tides and Currents Weather Stations Pressure Air Temp Water Temp Dewpoint Dewpoint Depression Visibility Wind Speed Wind Dir Waves Ship Positions

Pacific Titan

Owner: WESTERN TOWBOAT CO, SEATTLE, WA. More information available from US FCC via Universal Licensing System and Coast Guard Vessel Documentation Center.

Last reported at 2017-Aug-20 15:31 UTC. Time now 2017-Aug-20 15:34 UTC.
Position N 51°40' W 128°23'.

Type: Tow > 200 m length. MMSI: 338855000.

Date/timePositionNaut miles runAvg speedWind from/ knotsBaromVisibWave heightAir tempDewpointWater temp
2017-Aug-20 15:31N 51°40' W 128°23'5 9.9
2017-Aug-20 15:01N 51°36' W 128°19'510.3
2017-Aug-20 14:30N 51°31' W 128°15'5 9.8
2017-Aug-20 14:01N 51°28' W 128°09'5 9.9
2017-Aug-20 13:31N 51°25' W 128°03'610.1
2017-Aug-20 12:55N 51°20' W 127°57'4 9.8
2017-Aug-20 12:30N 51°16' W 127°54'510.0
2017-Aug-20 12:00N 51°11' W 127°54'510.5
2017-Aug-20 11:30N 51°06' W 127°52'610.8
2017-Aug-20 10:59N 51°01' W 127°48'510.6
2017-Aug-20 10:30N 50°57' W 127°43'510.9
2017-Aug-20 10:00N 50°54' W 127°37'611.4
2017-Aug-20 09:30N 50°50' W 127°29'510.7
2017-Aug-20 09:00N 50°48' W 127°22'510.3
2017-Aug-20 08:30N 50°46' W 127°14'7 9.5
2017-Aug-20 07:44N 50°43' W 127°04'210.0
2017-Aug-20 07:29N 50°42' W 126°60'5 9.4
2017-Aug-20 06:57N 50°41' W 126°52'4 9.4
2017-Aug-20 06:28N 50°38' W 126°47'17 9.1
2017-Aug-20 04:38N 50°30' W 126°24'210.1
2017-Aug-20 04:27N 50°30' W 126°21'2210.8
2017-Aug-20 02:23N 50°23' W 125°48'512.1
2017-Aug-20 02:00N 50°22' W 125°41'6 9.9
2017-Aug-20 01:26N 50°21' W 125°32'510.7
2017-Aug-20 01:01N 50°20' W 125°25'510.7
2017-Aug-20 00:30N 50°14' W 125°23'5 9.0
2017-Aug-20 00:00N 50°10' W 125°22'4 7.9
2017-Aug-19 23:31N 50°07' W 125°18'4 8.6
2017-Aug-19 23:01N 50°03' W 125°15'3 6.8
2017-Aug-19 22:30N 49°60' W 125°12'3 5.9
2017-Aug-19 22:01N 49°58' W 125°10'5 9.0
2017-Aug-19 21:30N 49°55' W 125°05'510.3
2017-Aug-19 21:00N 49°51' W 124°58'510.2
2017-Aug-19 20:30N 49°48' W 124°52'510.0
2017-Aug-19 20:01N 49°45' W 124°46'5 9.8
2017-Aug-19 19:31N 49°42' W 124°40'5 9.2
2017-Aug-19 19:01N 49°39' W 124°34'5 9.3
2017-Aug-19 18:30N 49°37' W 124°29'5 9.2
2017-Aug-19 18:00N 49°34' W 124°23'5 9.6
2017-Aug-19 17:31N 49°32' W 124°16'5 9.3
2017-Aug-19 17:01N 49°30' W 124°10'5 9.7
2017-Aug-19 16:31N 49°26' W 124°04'5 9.3
2017-Aug-19 16:01N 49°24' W 123°59'5 9.0
2017-Aug-19 15:31N 49°21' W 123°53'4 8.8
2017-Aug-19 15:00N 49°18' W 123°48'9 8.7
2017-Aug-19 14:00N 49°13' W 123°37'4 8.4
2017-Aug-19 13:30N 49°10' W 123°32'4 8.2
2017-Aug-19 13:01N 49°08' W 123°27'4 7.6
2017-Aug-19 12:30N 49°05' W 123°23'4 7.1
2017-Aug-19 12:01N 49°03' W 123°19'4 7.6
2017-Aug-19 11:30N 49°01' W 123°14'4 8.2
2017-Aug-19 11:01N 48°58' W 123°10'4 8.7
2017-Aug-19 10:30N 48°55' W 123°05'5 9.3
2017-Aug-19 10:00N 48°52' W 122°59'610.6
2017-Aug-19 09:29N 48°48' W 122°53'510.1
2017-Aug-19 09:00N 48°46' W 122°47'510.3
2017-Aug-19 08:31N 48°41' W 122°43'510.3
2017-Aug-19 08:01N 48°36' W 122°45'510.5
2017-Aug-19 07:30N 48°31' W 122°45'510.4
2017-Aug-19 07:00N 48°26' W 122°44'510.1
2017-Aug-19 06:31N 48°21' W 122°45'5 9.5
2017-Aug-19 05:59N 48°16' W 122°47'4 8.4
2017-Aug-19 05:30N 48°12' W 122°47'9 8.7
2017-Aug-19 04:28N 48°05' W 122°38'510.2
2017-Aug-19 04:00N 48°01' W 122°36'510.5
2017-Aug-19 03:30N 47°57' W 122°31'510.0
2017-Aug-19 03:01N 47°52' W 122°28'510.2
2017-Aug-19 02:30N 47°47' W 122°26'510.2
2017-Aug-19 02:01N 47°42' W 122°27'5 9.6
2017-Aug-19 01:30N 47°37' W 122°25'3 6.1
2017-Aug-19 01:01N 47°36' W 122°22'2 5.0
2017-Aug-19 00:31N 47°33' W 122°21'0 0.0
2017-Aug-19 00:00N 47°33' W 122°21'0 0.0
2017-Aug-18 23:30N 47°33' W 122°21'1 2.3
2017-Aug-18 23:01N 47°34' W 122°21'5 9.7
2017-Aug-18 22:31N 47°38' W 122°25'1 2.8
2017-Aug-18 22:00N 47°39' W 122°27'2 3.5
2017-Aug-18 21:30N 47°40' W 122°24'1 1.3
2017-Aug-18 21:00N 47°40' W 122°24'1 2.9
2017-Aug-18 20:31N 47°39' W 122°22'0 0.0
2017-Aug-18 20:00N 47°39' W 122°22'0 0.0
2017-Aug-18 19:30N 47°39' W 122°22'0 0.0
2017-Aug-18 19:01N 47°39' W 122°22'0 0.0
2017-Aug-18 18:31N 47°39' W 122°22'0 0.1
2017-Aug-18 18:01N 47°39' W 122°22'0 0.1
2017-Aug-18 17:30N 47°39' W 122°22'0 0.0
2017-Aug-18 17:01N 47°39' W 122°22'0 0.1
2017-Aug-18 16:31N 47°39' W 122°22'0 0.0
2017-Aug-18 16:01N 47°39' W 122°22'0 0.0
2017-Aug-18 15:30N 47°39' W 122°22'0 0.0
2017-Aug-18 15:00N 47°39' W 122°22'0 0.0
2017-Aug-18 14:30N 47°39' W 122°22'0 0.0
2017-Aug-18 13:30N 47°39' W 122°22'0 0.1
2017-Aug-18 13:01N 47°39' W 122°22'0 0.1
2017-Aug-18 12:30N 47°39' W 122°22'0 0.1
2017-Aug-18 12:00N 47°39' W 122°22'0 0.0
2017-Aug-18 11:30N 47°39' W 122°22'0 0.0
2017-Aug-18 11:00N 47°39' W 122°22'0 0.1
2017-Aug-18 10:30N 47°39' W 122°22'0 0.0
2017-Aug-18 10:01N 47°39' W 122°22'0 0.1
2017-Aug-18 09:31N 47°39' W 122°22'0 0.0
2017-Aug-18 09:01N 47°39' W 122°22'0 0.0
2017-Aug-18 08:31N 47°39' W 122°22'0 0.1
2017-Aug-18 08:00N 47°39' W 122°22'0 0.0
2017-Aug-18 07:31N 47°39' W 122°22'0 0.0
2017-Aug-18 07:01N 47°39' W 122°22'0 0.1
2017-Aug-18 06:30N 47°39' W 122°22'0 0.1
2017-Aug-18 06:01N 47°39' W 122°22'0 0.0
2017-Aug-18 05:30N 47°39' W 122°22'0 0.0
2017-Aug-18 05:00N 47°39' W 122°22'0 0.1
2017-Aug-18 04:30N 47°39' W 122°22'0 0.1
2017-Aug-18 04:01N 47°39' W 122°22'0 0.1
2017-Aug-18 03:31N 47°39' W 122°22'0 0.0
2017-Aug-18 03:01N 47°39' W 122°22'0 0.1
2017-Aug-18 02:30N 47°39' W 122°22'0 0.1
2017-Aug-18 02:00N 47°39' W 122°22'0 0.0
2017-Aug-18 01:30N 47°39' W 122°22'0 0.0
2017-Aug-18 01:01N 47°39' W 122°22'0 0.0
2017-Aug-18 00:30N 47°39' W 122°22'0 0.0
2017-Aug-18 00:00N 47°39' W 122°22'0 0.0
2017-Aug-17 23:30N 47°39' W 122°22'0 0.0
2017-Aug-17 23:01N 47°39' W 122°22'0 0.1
2017-Aug-17 22:31N 47°39' W 122°22'0 0.1
2017-Aug-17 22:00N 47°39' W 122°22'0 0.0
2017-Aug-17 21:31N 47°39' W 122°22'0 0.1
2017-Aug-17 21:01N 47°39' W 122°22'0 0.0
2017-Aug-17 20:31N 47°39' W 122°22'0 0.0
2017-Aug-17 20:01N 47°39' W 122°22'0 0.0
2017-Aug-17 19:30N 47°39' W 122°22'0 0.0
2017-Aug-17 19:01N 47°39' W 122°22'0 0.0
2017-Aug-17 18:30N 47°39' W 122°22'0 0.0
2017-Aug-17 18:00N 47°39' W 122°22'0 0.0
2017-Aug-17 17:30N 47°39' W 122°22'0 0.0
2017-Aug-17 17:01N 47°39' W 122°22'0 0.0
2017-Aug-17 16:31N 47°39' W 122°22'0 0.0
2017-Aug-17 16:00N 47°39' W 122°22'0 0.0
2017-Aug-17 15:30N 47°39' W 122°22'0 0.0
2017-Aug-17 15:01N 47°39' W 122°22'0 0.0
2017-Aug-17 14:31N 47°39' W 122°22'0 0.0
2017-Aug-17 14:00N 47°39' W 122°22'0 0.0
2017-Aug-17 13:30N 47°39' W 122°22'0 0.0
2017-Aug-17 13:00N 47°39' W 122°22'0 0.0
2017-Aug-17 12:30N 47°39' W 122°22'0 0.0
2017-Aug-17 12:00N 47°39' W 122°22'0 0.0
2017-Aug-17 11:31N 47°39' W 122°22'0 0.0
2017-Aug-17 11:01N 47°39' W 122°22'0 0.0
2017-Aug-17 10:31N 47°39' W 122°22'0 0.0
2017-Aug-17 10:01N 47°39' W 122°22'0 0.0
2017-Aug-17 09:31N 47°39' W 122°22'0 0.0
2017-Aug-17 09:00N 47°39' W 122°22'0 0.0
2017-Aug-17 08:31N 47°39' W 122°22'0 0.0
2017-Aug-17 08:01N 47°39' W 122°22'0 0.0
2017-Aug-17 07:30N 47°39' W 122°22'0 0.0
2017-Aug-17 07:01N 47°39' W 122°22'0 0.0
2017-Aug-17 06:31N 47°39' W 122°22'0 0.0
2017-Aug-17 06:00N 47°39' W 122°22'0 0.0
2017-Aug-17 05:31N 47°39' W 122°22'0 0.0
2017-Aug-17 05:01N 47°39' W 122°22'0 0.0
2017-Aug-17 04:30N 47°39' W 122°22'0 0.0
2017-Aug-17 04:01N 47°39' W 122°22'0 0.0
2017-Aug-17 03:31N 47°39' W 122°22'0 0.0
2017-Aug-17 03:01N 47°39' W 122°22'0 0.0
2017-Aug-17 02:31N 47°39' W 122°22'0 0.0
2017-Aug-17 02:01N 47°39' W 122°22'0 0.0
2017-Aug-17 01:30N 47°39' W 122°22'0 0.0
2017-Aug-17 01:00N 47°39' W 122°22'0 0.0
2017-Aug-17 00:31N 47°39' W 122°22'0 0.0
2017-Aug-17 00:00N 47°39' W 122°22'0 0.0
2017-Aug-16 23:30N 47°39' W 122°22'0 0.0
2017-Aug-16 23:01N 47°39' W 122°22'0 0.0
2017-Aug-16 22:30N 47°39' W 122°22'0 0.0
2017-Aug-16 22:01N 47°39' W 122°22'0 0.2
2017-Aug-16 21:31N 47°39' W 122°22'0 0.0
2017-Aug-16 21:01N 47°39' W 122°22'0 0.0
2017-Aug-16 20:30N 47°39' W 122°22'0 0.0
2017-Aug-16 20:01N 47°39' W 122°22'0 0.0
2017-Aug-16 19:30N 47°39' W 122°22'0 0.0
2017-Aug-16 19:00N 47°39' W 122°22'0 0.0
2017-Aug-16 18:30N 47°39' W 122°22'0 0.0
2017-Aug-16 18:01N 47°39' W 122°22'1 2.1
2017-Aug-16 17:30N 47°40' W 122°23'1 1.5
2017-Aug-16 17:01N 47°40' W 122°24'3 5.6
2017-Aug-16 16:31N 47°37' W 122°25'5 9.3
2017-Aug-16 16:00N 47°33' W 122°21'0 0.8
2017-Aug-16 15:31N 47°33' W 122°20'1 1.9
2017-Aug-16 15:01N 47°34' W 122°21'1 2.4
2017-Aug-16 14:31N 47°35' W 122°22'1 1.8
2017-Aug-16 14:00N 47°36' W 122°21'0 0.1
2017-Aug-16 13:31N 47°36' W 122°21'2 3.3
2017-Aug-16 13:01N 47°37' W 122°23'4 7.2
2017-Aug-16 12:31N 47°39' W 122°28'3 5.9
2017-Aug-16 12:00N 47°42' W 122°28'3 5.8
2017-Aug-16 11:31N 47°45' W 122°27'3 5.5
2017-Aug-16 11:00N 47°47' W 122°27'3 5.8
2017-Aug-16 10:30N 47°50' W 122°28'3 5.4
2017-Aug-16 10:00N 47°53' W 122°29'3 6.0
2017-Aug-16 09:31N 47°56' W 122°31'3 5.7
2017-Aug-16 09:00N 47°57' W 122°35'2 4.6
2017-Aug-16 08:30N 47°59' W 122°37'2 4.7
2017-Aug-16 08:00N 48°01' W 122°38'3 5.1
2017-Aug-16 07:26N 48°04' W 122°39'4 7.0
2017-Aug-16 06:54N 48°07' W 122°42'4 8.7
2017-Aug-16 06:29N 48°10' W 122°46'4 8.3
2017-Aug-16 06:00N 48°13' W 122°48'4 8.0
2017-Aug-16 05:31N 48°17' W 122°48'4 7.5
2017-Aug-16 05:00N 48°21' W 122°46'4 8.1
2017-Aug-16 04:31N 48°25' W 122°45'4 8.9
2017-Aug-16 04:00N 48°29' W 122°45'4 8.0
2017-Aug-16 03:31N 48°33' W 122°45'4 8.2
2017-Aug-16 03:01N 48°37' W 122°45'4 8.1
2017-Aug-16 02:30N 48°41' W 122°44'4 9.0
2017-Aug-16 02:00N 48°45' W 122°48'5 9.5
2017-Aug-16 01:30N 48°47' W 122°54'510.2
2017-Aug-16 01:01N 48°50' W 123°00'510.5
2017-Aug-16 00:29N 48°54' W 123°07'510.4
2017-Aug-16 00:01N 48°57' W 123°13'510.6
2017-Aug-15 23:30N 49°00' W 123°19'510.7
2017-Aug-15 23:01N 49°04' W 123°25'510.3
2017-Aug-15 22:30N 49°08' W 123°30'510.1
2017-Aug-15 22:00N 49°11' W 123°36'510.2
2017-Aug-15 21:30N 49°14' W 123°42'510.4
2017-Aug-15 21:01N 49°16' W 123°49'510.4
2017-Aug-15 20:31N 49°19' W 123°56'510.5
2017-Aug-15 20:01N 49°21' W 124°04'510.2
2017-Aug-15 19:30N 49°23' W 124°11'510.3
2017-Aug-15 19:01N 49°25' W 124°18'4 8.7
2017-Aug-15 18:30N 49°27' W 124°24'4 8.7
2017-Aug-15 18:01N 49°29' W 124°29'510.1
2017-Aug-15 17:31N 49°34' W 124°34'510.1
2017-Aug-15 17:00N 49°38' W 124°39'510.1
2017-Aug-15 16:30N 49°41' W 124°44'5 9.8
2017-Aug-15 16:00N 49°45' W 124°50'5 9.8
2017-Aug-15 15:31N 49°48' W 124°55'5 9.7
2017-Aug-15 15:01N 49°52' W 125°00'5 9.6
2017-Aug-15 14:30N 49°55' W 125°06'510.2
2017-Aug-15 14:01N 49°58' W 125°11'612.1
2017-Aug-15 13:31N 50°04' W 125°15'510.2
2017-Aug-15 13:00N 50°08' W 125°21'5 9.7
2017-Aug-15 12:30N 50°12' W 125°22'5 9.0
2017-Aug-15 12:00N 50°17' W 125°24'11 7.3
2017-Aug-15 10:31N 50°22' W 125°39'0 7.1
2017-Aug-15 10:30N 50°22' W 125°39'12 6.6
2017-Aug-15 08:45N 50°24' W 125°57'2 6.2
2017-Aug-15 08:23N 50°25' W 125°60'3 8.4
2017-Aug-15 08:00N 50°27' W 126°04'5 9.2
2017-Aug-15 07:30N 50°29' W 126°11'5 9.1
2017-Aug-15 07:01N 50°29' W 126°18'5 9.4
2017-Aug-15 06:31N 50°30' W 126°25'5 9.3
2017-Aug-15 06:00N 50°30' W 126°33'4 8.9
2017-Aug-15 05:31N 50°32' W 126°39'4 8.2
2017-Aug-15 05:00N 50°35' W 126°42'5 9.6
2017-Aug-15 04:30N 50°38' W 126°48'510.3
2017-Aug-15 04:00N 50°41' W 126°54'510.0
2017-Aug-15 03:30N 50°43' W 127°02'5 9.7
2017-Aug-15 03:00N 50°44' W 127°10'5 9.3
2017-Aug-15 02:30N 50°45' W 127°17'4 8.9
2017-Aug-15 02:00N 50°47' W 127°23'4 8.6
2017-Aug-15 01:30N 50°50' W 127°28'5 9.3
2017-Aug-15 01:00N 50°52' W 127°35'4 8.1
2017-Aug-15 00:30N 50°55' W 127°39'5 9.8
2017-Aug-15 00:00N 50°59' W 127°45'5 9.6
2017-Aug-14 23:30N 51°03' W 127°49'510.0
2017-Aug-14 23:00N 51°07' W 127°52'5 9.5
2017-Aug-14 22:30N 51°12' W 127°54'5 9.4
2017-Aug-14 22:00N 51°16' W 127°54'5 9.3
2017-Aug-14 21:30N 51°21' W 127°58'5 9.1
2017-Aug-14 21:00N 51°24' W 128°02'5 9.4
2017-Aug-14 20:30N 51°27' W 128°08'5 9.2
2017-Aug-14 20:00N 51°30' W 128°13'5 9.2
2017-Aug-14 19:31N 51°34' W 128°17'5 9.0
2017-Aug-14 19:01N 51°38' W 128°21'5 9.4
2017-Aug-14 18:30N 51°42' W 128°26'5 9.7
2017-Aug-14 18:00N 51°46' W 128°30'5 9.7
2017-Aug-14 17:31N 51°50' W 128°34'5 9.9
2017-Aug-14 17:01N 51°55' W 128°37'5 9.9
2017-Aug-14 16:31N 51°59' W 128°39'7 9.7
2017-Aug-14 15:49N 52°06' W 128°42'3 9.6
2017-Aug-14 15:28N 52°09' W 128°44'  
2017-Aug-11 03:03N 58°17' W 136°20'112.1
2017-Aug-11 03:00N 58°17' W 136°19'611.6
2017-Aug-11 02:27N 58°15' W 136°08'511.3
2017-Aug-11 02:00N 58°16' W 135°59'611.4
2017-Aug-11 01:30N 58°18' W 135°48'610.6
2017-Aug-11 00:59N 58°17' W 135°38'  
Track history (hours):
 
Tides and Currents Weather Stations Pressure Air Temp Water Temp Dewpoint Dewpoint Depression Visibility Wind Speed Wind Dir Waves Ship Positions

Pacific Titan

Owner: WESTERN TOWBOAT CO, SEATTLE, WA. More information available from US FCC via Universal Licensing System and Coast Guard Vessel Documentation Center.

Last reported at 2017-Aug-20 15:31 UTC. Time now 2017-Aug-20 15:34 UTC.
Position N 51°40' W 128°23'.

Type: Tow > 200 m length. MMSI: 338855000.

Date/timePositionNaut miles runAvg speedWind from/ knotsBaromVisibWave heightAir tempDewpointWater temp
2017-Aug-20 15:31N 51°40' W 128°23'5 9.9
2017-Aug-20 15:01N 51°36' W 128°19'510.3
2017-Aug-20 14:30N 51°31' W 128°15'5 9.8
2017-Aug-20 14:01N 51°28' W 128°09'5 9.9
2017-Aug-20 13:31N 51°25' W 128°03'610.1
2017-Aug-20 12:55N 51°20' W 127°57'4 9.8
2017-Aug-20 12:30N 51°16' W 127°54'510.0
2017-Aug-20 12:00N 51°11' W 127°54'510.5
2017-Aug-20 11:30N 51°06' W 127°52'610.8
2017-Aug-20 10:59N 51°01' W 127°48'510.6
2017-Aug-20 10:30N 50°57' W 127°43'510.9
2017-Aug-20 10:00N 50°54' W 127°37'611.4
2017-Aug-20 09:30N 50°50' W 127°29'510.7
2017-Aug-20 09:00N 50°48' W 127°22'510.3
2017-Aug-20 08:30N 50°46' W 127°14'7 9.5
2017-Aug-20 07:44N 50°43' W 127°04'210.0
2017-Aug-20 07:29N 50°42' W 126°60'5 9.4
2017-Aug-20 06:57N 50°41' W 126°52'4 9.4
2017-Aug-20 06:28N 50°38' W 126°47'17 9.1
2017-Aug-20 04:38N 50°30' W 126°24'210.1
2017-Aug-20 04:27N 50°30' W 126°21'2210.8
2017-Aug-20 02:23N 50°23' W 125°48'512.1
2017-Aug-20 02:00N 50°22' W 125°41'6 9.9
2017-Aug-20 01:26N 50°21' W 125°32'510.7
2017-Aug-20 01:01N 50°20' W 125°25'510.7
2017-Aug-20 00:30N 50°14' W 125°23'5 9.0
2017-Aug-20 00:00N 50°10' W 125°22'4 7.9
2017-Aug-19 23:31N 50°07' W 125°18'4 8.6
2017-Aug-19 23:01N 50°03' W 125°15'3 6.8
2017-Aug-19 22:30N 49°60' W 125°12'3 5.9
2017-Aug-19 22:01N 49°58' W 125°10'5 9.0
2017-Aug-19 21:30N 49°55' W 125°05'510.3
2017-Aug-19 21:00N 49°51' W 124°58'510.2
2017-Aug-19 20:30N 49°48' W 124°52'510.0
2017-Aug-19 20:01N 49°45' W 124°46'5 9.8
2017-Aug-19 19:31N 49°42' W 124°40'5 9.2
2017-Aug-19 19:01N 49°39' W 124°34'5 9.3
2017-Aug-19 18:30N 49°37' W 124°29'5 9.2
2017-Aug-19 18:00N 49°34' W 124°23'5 9.6
2017-Aug-19 17:31N 49°32' W 124°16'5 9.3
2017-Aug-19 17:01N 49°30' W 124°10'5 9.7
2017-Aug-19 16:31N 49°26' W 124°04'5 9.3
2017-Aug-19 16:01N 49°24' W 123°59'5 9.0
2017-Aug-19 15:31N 49°21' W 123°53'4 8.8
2017-Aug-19 15:00N 49°18' W 123°48'9 8.7
2017-Aug-19 14:00N 49°13' W 123°37'4 8.4
2017-Aug-19 13:30N 49°10' W 123°32'4 8.2
2017-Aug-19 13:01N 49°08' W 123°27'4 7.6
2017-Aug-19 12:30N 49°05' W 123°23'4 7.1
2017-Aug-19 12:01N 49°03' W 123°19'4 7.6
2017-Aug-19 11:30N 49°01' W 123°14'4 8.2
2017-Aug-19 11:01N 48°58' W 123°10'4 8.7
2017-Aug-19 10:30N 48°55' W 123°05'5 9.3
2017-Aug-19 10:00N 48°52' W 122°59'610.6
2017-Aug-19 09:29N 48°48' W 122°53'510.1
2017-Aug-19 09:00N 48°46' W 122°47'510.3
2017-Aug-19 08:31N 48°41' W 122°43'510.3
2017-Aug-19 08:01N 48°36' W 122°45'510.5
2017-Aug-19 07:30N 48°31' W 122°45'510.4
2017-Aug-19 07:00N 48°26' W 122°44'510.1
2017-Aug-19 06:31N 48°21' W 122°45'5 9.5
2017-Aug-19 05:59N 48°16' W 122°47'4 8.4
2017-Aug-19 05:30N 48°12' W 122°47'9 8.7
2017-Aug-19 04:28N 48°05' W 122°38'510.2
2017-Aug-19 04:00N 48°01' W 122°36'510.5
2017-Aug-19 03:30N 47°57' W 122°31'510.0
2017-Aug-19 03:01N 47°52' W 122°28'510.2
2017-Aug-19 02:30N 47°47' W 122°26'510.2
2017-Aug-19 02:01N 47°42' W 122°27'5 9.6
2017-Aug-19 01:30N 47°37' W 122°25'3 6.1
2017-Aug-19 01:01N 47°36' W 122°22'2 5.0
2017-Aug-19 00:31N 47°33' W 122°21'0 0.0
2017-Aug-19 00:00N 47°33' W 122°21'0 0.0
2017-Aug-18 23:30N 47°33' W 122°21'1 2.3
2017-Aug-18 23:01N 47°34' W 122°21'5 9.7
2017-Aug-18 22:31N 47°38' W 122°25'1 2.8
2017-Aug-18 22:00N 47°39' W 122°27'2 3.5
2017-Aug-18 21:30N 47°40' W 122°24'1 1.3
2017-Aug-18 21:00N 47°40' W 122°24'1 2.9
2017-Aug-18 20:31N 47°39' W 122°22'0 0.0
2017-Aug-18 20:00N 47°39' W 122°22'0 0.0
2017-Aug-18 19:30N 47°39' W 122°22'0 0.0
2017-Aug-18 19:01N 47°39' W 122°22'0 0.0
2017-Aug-18 18:31N 47°39' W 122°22'0 0.1
2017-Aug-18 18:01N 47°39' W 122°22'0 0.1
2017-Aug-18 17:30N 47°39' W 122°22'0 0.0
2017-Aug-18 17:01N 47°39' W 122°22'0 0.1
2017-Aug-18 16:31N 47°39' W 122°22'0 0.0
2017-Aug-18 16:01N 47°39' W 122°22'0 0.0
2017-Aug-18 15:30N 47°39' W 122°22'0 0.0
2017-Aug-18 15:00N 47°39' W 122°22'0 0.0
2017-Aug-18 14:30N 47°39' W 122°22'0 0.0
2017-Aug-18 13:30N 47°39' W 122°22'0 0.1
2017-Aug-18 13:01N 47°39' W 122°22'0 0.1
2017-Aug-18 12:30N 47°39' W 122°22'0 0.1
2017-Aug-18 12:00N 47°39' W 122°22'0 0.0
2017-Aug-18 11:30N 47°39' W 122°22'0 0.0
2017-Aug-18 11:00N 47°39' W 122°22'0 0.1
2017-Aug-18 10:30N 47°39' W 122°22'0 0.0
2017-Aug-18 10:01N 47°39' W 122°22'0 0.1
2017-Aug-18 09:31N 47°39' W 122°22'0 0.0
2017-Aug-18 09:01N 47°39' W 122°22'0 0.0
2017-Aug-18 08:31N 47°39' W 122°22'0 0.1
2017-Aug-18 08:00N 47°39' W 122°22'0 0.0
2017-Aug-18 07:31N 47°39' W 122°22'0 0.0
2017-Aug-18 07:01N 47°39' W 122°22'0 0.1
2017-Aug-18 06:30N 47°39' W 122°22'0 0.1
2017-Aug-18 06:01N 47°39' W 122°22'0 0.0
2017-Aug-18 05:30N 47°39' W 122°22'0 0.0
2017-Aug-18 05:00N 47°39' W 122°22'0 0.1
2017-Aug-18 04:30N 47°39' W 122°22'0 0.1
2017-Aug-18 04:01N 47°39' W 122°22'0 0.1
2017-Aug-18 03:31N 47°39' W 122°22'0 0.0
2017-Aug-18 03:01N 47°39' W 122°22'0 0.1
2017-Aug-18 02:30N 47°39' W 122°22'0 0.1
2017-Aug-18 02:00N 47°39' W 122°22'0 0.0
2017-Aug-18 01:30N 47°39' W 122°22'0 0.0
2017-Aug-18 01:01N 47°39' W 122°22'0 0.0
2017-Aug-18 00:30N 47°39' W 122°22'0 0.0
2017-Aug-18 00:00N 47°39' W 122°22'0 0.0
2017-Aug-17 23:30N 47°39' W 122°22'0 0.0
2017-Aug-17 23:01N 47°39' W 122°22'0 0.1
2017-Aug-17 22:31N 47°39' W 122°22'0 0.1
2017-Aug-17 22:00N 47°39' W 122°22'0 0.0
2017-Aug-17 21:31N 47°39' W 122°22'0 0.1
2017-Aug-17 21:01N 47°39' W 122°22'0 0.0
2017-Aug-17 20:31N 47°39' W 122°22'0 0.0
2017-Aug-17 20:01N 47°39' W 122°22'0 0.0
2017-Aug-17 19:30N 47°39' W 122°22'0 0.0
2017-Aug-17 19:01N 47°39' W 122°22'0 0.0
2017-Aug-17 18:30N 47°39' W 122°22'0 0.0
2017-Aug-17 18:00N 47°39' W 122°22'0 0.0
2017-Aug-17 17:30N 47°39' W 122°22'0 0.0
2017-Aug-17 17:01N 47°39' W 122°22'0 0.0
2017-Aug-17 16:31N 47°39' W 122°22'0 0.0
2017-Aug-17 16:00N 47°39' W 122°22'0 0.0
2017-Aug-17 15:30N 47°39' W 122°22'0 0.0
2017-Aug-17 15:01N 47°39' W 122°22'0 0.0
2017-Aug-17 14:31N 47°39' W 122°22'0 0.0
2017-Aug-17 14:00N 47°39' W 122°22'0 0.0
2017-Aug-17 13:30N 47°39' W 122°22'0 0.0
2017-Aug-17 13:00N 47°39' W 122°22'0 0.0
2017-Aug-17 12:30N 47°39' W 122°22'0 0.0
2017-Aug-17 12:00N 47°39' W 122°22'0 0.0
2017-Aug-17 11:31N 47°39' W 122°22'0 0.0
2017-Aug-17 11:01N 47°39' W 122°22'0 0.0
2017-Aug-17 10:31N 47°39' W 122°22'0 0.0
2017-Aug-17 10:01N 47°39' W 122°22'0 0.0
2017-Aug-17 09:31N 47°39' W 122°22'0 0.0
2017-Aug-17 09:00N 47°39' W 122°22'0 0.0
2017-Aug-17 08:31N 47°39' W 122°22'0 0.0
2017-Aug-17 08:01N 47°39' W 122°22'0 0.0
2017-Aug-17 07:30N 47°39' W 122°22'0 0.0
2017-Aug-17 07:01N 47°39' W 122°22'0 0.0
2017-Aug-17 06:31N 47°39' W 122°22'0 0.0
2017-Aug-17 06:00N 47°39' W 122°22'0 0.0
2017-Aug-17 05:31N 47°39' W 122°22'0 0.0
2017-Aug-17 05:01N 47°39' W 122°22'0 0.0
2017-Aug-17 04:30N 47°39' W 122°22'0 0.0
2017-Aug-17 04:01N 47°39' W 122°22'0 0.0
2017-Aug-17 03:31N 47°39' W 122°22'0 0.0
2017-Aug-17 03:01N 47°39' W 122°22'0 0.0
2017-Aug-17 02:31N 47°39' W 122°22'0 0.0
2017-Aug-17 02:01N 47°39' W 122°22'0 0.0
2017-Aug-17 01:30N 47°39' W 122°22'0 0.0
2017-Aug-17 01:00N 47°39' W 122°22'0 0.0
2017-Aug-17 00:31N 47°39' W 122°22'0 0.0
2017-Aug-17 00:00N 47°39' W 122°22'0 0.0
2017-Aug-16 23:30N 47°39' W 122°22'0 0.0
2017-Aug-16 23:01N 47°39' W 122°22'0 0.0
2017-Aug-16 22:30N 47°39' W 122°22'0 0.0
2017-Aug-16 22:01N 47°39' W 122°22'0 0.2
2017-Aug-16 21:31N 47°39' W 122°22'0 0.0
2017-Aug-16 21:01N 47°39' W 122°22'0 0.0
2017-Aug-16 20:30N 47°39' W 122°22'0 0.0
2017-Aug-16 20:01N 47°39' W 122°22'0 0.0
2017-Aug-16 19:30N 47°39' W 122°22'0 0.0
2017-Aug-16 19:00N 47°39' W 122°22'0 0.0
2017-Aug-16 18:30N 47°39' W 122°22'0 0.0
2017-Aug-16 18:01N 47°39' W 122°22'1 2.1
2017-Aug-16 17:30N 47°40' W 122°23'1 1.5
2017-Aug-16 17:01N 47°40' W 122°24'3 5.6
2017-Aug-16 16:31N 47°37' W 122°25'5 9.3
2017-Aug-16 16:00N 47°33' W 122°21'0 0.8
2017-Aug-16 15:31N 47°33' W 122°20'1 1.9
2017-Aug-16 15:01N 47°34' W 122°21'1 2.4
2017-Aug-16 14:31N 47°35' W 122°22'1 1.8
2017-Aug-16 14:00N 47°36' W 122°21'0 0.1
2017-Aug-16 13:31N 47°36' W 122°21'2 3.3
2017-Aug-16 13:01N 47°37' W 122°23'4 7.2
2017-Aug-16 12:31N 47°39' W 122°28'3 5.9
2017-Aug-16 12:00N 47°42' W 122°28'3 5.8
2017-Aug-16 11:31N 47°45' W 122°27'3 5.5
2017-Aug-16 11:00N 47°47' W 122°27'3 5.8
2017-Aug-16 10:30N 47°50' W 122°28'3 5.4
2017-Aug-16 10:00N 47°53' W 122°29'3 6.0
2017-Aug-16 09:31N 47°56' W 122°31'3 5.7
2017-Aug-16 09:00N 47°57' W 122°35'2 4.6
2017-Aug-16 08:30N 47°59' W 122°37'2 4.7
2017-Aug-16 08:00N 48°01' W 122°38'3 5.1
2017-Aug-16 07:26N 48°04' W 122°39'4 7.0
2017-Aug-16 06:54N 48°07' W 122°42'4 8.7
2017-Aug-16 06:29N 48°10' W 122°46'4 8.3
2017-Aug-16 06:00N 48°13' W 122°48'4 8.0
2017-Aug-16 05:31N 48°17' W 122°48'4 7.5
2017-Aug-16 05:00N 48°21' W 122°46'4 8.1
2017-Aug-16 04:31N 48°25' W 122°45'4 8.9
2017-Aug-16 04:00N 48°29' W 122°45'4 8.0
2017-Aug-16 03:31N 48°33' W 122°45'4 8.2
2017-Aug-16 03:01N 48°37' W 122°45'4 8.1
2017-Aug-16 02:30N 48°41' W 122°44'4 9.0
2017-Aug-16 02:00N 48°45' W 122°48'5 9.5
2017-Aug-16 01:30N 48°47' W 122°54'510.2
2017-Aug-16 01:01N 48°50' W 123°00'510.5
2017-Aug-16 00:29N 48°54' W 123°07'510.4
2017-Aug-16 00:01N 48°57' W 123°13'510.6
2017-Aug-15 23:30N 49°00' W 123°19'510.7
2017-Aug-15 23:01N 49°04' W 123°25'510.3
2017-Aug-15 22:30N 49°08' W 123°30'510.1
2017-Aug-15 22:00N 49°11' W 123°36'510.2
2017-Aug-15 21:30N 49°14' W 123°42'510.4
2017-Aug-15 21:01N 49°16' W 123°49'510.4
2017-Aug-15 20:31N 49°19' W 123°56'510.5
2017-Aug-15 20:01N 49°21' W 124°04'510.2
2017-Aug-15 19:30N 49°23' W 124°11'510.3
2017-Aug-15 19:01N 49°25' W 124°18'4 8.7
2017-Aug-15 18:30N 49°27' W 124°24'4 8.7
2017-Aug-15 18:01N 49°29' W 124°29'510.1
2017-Aug-15 17:31N 49°34' W 124°34'510.1
2017-Aug-15 17:00N 49°38' W 124°39'510.1
2017-Aug-15 16:30N 49°41' W 124°44'5 9.8
2017-Aug-15 16:00N 49°45' W 124°50'5 9.8
2017-Aug-15 15:31N 49°48' W 124°55'5 9.7
2017-Aug-15 15:01N 49°52' W 125°00'5 9.6
2017-Aug-15 14:30N 49°55' W 125°06'510.2
2017-Aug-15 14:01N 49°58' W 125°11'612.1
2017-Aug-15 13:31N 50°04' W 125°15'510.2
2017-Aug-15 13:00N 50°08' W 125°21'5 9.7
2017-Aug-15 12:30N 50°12' W 125°22'5 9.0
2017-Aug-15 12:00N 50°17' W 125°24'11 7.3
2017-Aug-15 10:31N 50°22' W 125°39'0 7.1
2017-Aug-15 10:30N 50°22' W 125°39'12 6.6
2017-Aug-15 08:45N 50°24' W 125°57'2 6.2
2017-Aug-15 08:23N 50°25' W 125°60'3 8.4
2017-Aug-15 08:00N 50°27' W 126°04'5 9.2
2017-Aug-15 07:30N 50°29' W 126°11'5 9.1
2017-Aug-15 07:01N 50°29' W 126°18'5 9.4
2017-Aug-15 06:31N 50°30' W 126°25'5 9.3
2017-Aug-15 06:00N 50°30' W 126°33'4 8.9
2017-Aug-15 05:31N 50°32' W 126°39'4 8.2
2017-Aug-15 05:00N 50°35' W 126°42'5 9.6
2017-Aug-15 04:30N 50°38' W 126°48'510.3
2017-Aug-15 04:00N 50°41' W 126°54'510.0
2017-Aug-15 03:30N 50°43' W 127°02'5 9.7
2017-Aug-15 03:00N 50°44' W 127°10'5 9.3
2017-Aug-15 02:30N 50°45' W 127°17'4 8.9
2017-Aug-15 02:00N 50°47' W 127°23'4 8.6
2017-Aug-15 01:30N 50°50' W 127°28'5 9.3
2017-Aug-15 01:00N 50°52' W 127°35'4 8.1
2017-Aug-15 00:30N 50°55' W 127°39'5 9.8
2017-Aug-15 00:00N 50°59' W 127°45'5 9.6
2017-Aug-14 23:30N 51°03' W 127°49'510.0
2017-Aug-14 23:00N 51°07' W 127°52'5 9.5
2017-Aug-14 22:30N 51°12' W 127°54'5 9.4
2017-Aug-14 22:00N 51°16' W 127°54'5 9.3
2017-Aug-14 21:30N 51°21' W 127°58'5 9.1
2017-Aug-14 21:00N 51°24' W 128°02'5 9.4
2017-Aug-14 20:30N 51°27' W 128°08'5 9.2
2017-Aug-14 20:00N 51°30' W 128°13'5 9.2
2017-Aug-14 19:31N 51°34' W 128°17'5 9.0
2017-Aug-14 19:01N 51°38' W 128°21'5 9.4
2017-Aug-14 18:30N 51°42' W 128°26'5 9.7
2017-Aug-14 18:00N 51°46' W 128°30'5 9.7
2017-Aug-14 17:31N 51°50' W 128°34'5 9.9
2017-Aug-14 17:01N 51°55' W 128°37'5 9.9
2017-Aug-14 16:31N 51°59' W 128°39'7 9.7
2017-Aug-14 15:49N 52°06' W 128°42'3 9.6
2017-Aug-14 15:28N 52°09' W 128°44'  
2017-Aug-11 03:03N 58°17' W 136°20'112.1
2017-Aug-11 03:00N 58°17' W 136°19'611.6
2017-Aug-11 02:27N 58°15' W 136°08'511.3
2017-Aug-11 02:00N 58°16' W 135°59'611.4
2017-Aug-11 01:30N 58°18' W 135°48'610.6
2017-Aug-11 00:59N 58°17' W 135°38'  

Dump ship's entire track history